Aviation Digital Data Service (ADDS)

Output produced by METARs form (1236 UTC 26 March 2019)
found at http://www.aviationweather.gov/metar/data/
 
METAR text: UUDL 261200Z 19003MPS 150V220 CAVOK 06/M05 Q1001 R23/010060 NOSIG RMK QFE743
Conditions at: UUDL (YAROSLAV , RU) observed 1200 UTC 26 March 2019
Temperature: 6.0°C (43°F)
Dewpoint: -5.0°C (23°F) [RH = 45%]
Pressure (altimeter): 29.56 inches Hg (1001.0 mb)
Winds: from the S (190 degrees) at 7 MPH (6 knots; 3.1 m/s)
Visibility: 6 or more miles (10+ km)
Ceiling: ceiling and visibility are OK
Clouds: unknown
Weather: no significant weather observed at this time

METAR text: UUDL 261130Z 16004MPS CAVOK 06/M04 Q1001 R23/010060 NOSIG RMK QFE743
Conditions at: UUDL (YAROSLAV , RU) observed 1130 UTC 26 March 2019
Temperature: 6.0°C (43°F)
Dewpoint: -4.0°C (25°F) [RH = 49%]
Pressure (altimeter): 29.56 inches Hg (1001.0 mb)
Winds: from the SSE (160 degrees) at 9 MPH (8 knots; 4.1 m/s)
Visibility: 6 or more miles (10+ km)
Ceiling: ceiling and visibility are OK
Clouds: unknown
Weather: no significant weather observed at this time

METAR text: UUDL 261100Z 19003MPS 150V220 CAVOK 06/M05 Q1001 R23/010060 NOSIG RMK QFE743
Conditions at: UUDL (YAROSLAV , RU) observed 1100 UTC 26 March 2019
Temperature: 6.0°C (43°F)
Dewpoint: -5.0°C (23°F) [RH = 45%]
Pressure (altimeter): 29.56 inches Hg (1001.0 mb)
Winds: from the S (190 degrees) at 7 MPH (6 knots; 3.1 m/s)
Visibility: 6 or more miles (10+ km)
Ceiling: ceiling and visibility are OK
Clouds: unknown
Weather: no significant weather observed at this time

METAR text: UUDL 261030Z 23003MPS CAVOK 06/M05 Q1001 R23/010060 NOSIG RMK QFE743
Conditions at: UUDL (YAROSLAV , RU) observed 1030 UTC 26 March 2019
Temperature: 6.0°C (43°F)
Dewpoint: -5.0°C (23°F) [RH = 45%]
Pressure (altimeter): 29.56 inches Hg (1001.0 mb)
Winds: from the SW (230 degrees) at 7 MPH (6 knots; 3.1 m/s)
Visibility: 6 or more miles (10+ km)
Ceiling: ceiling and visibility are OK
Clouds: unknown
Weather: no significant weather observed at this time

METAR text: UUDL 261000Z 20003MPS 130V240 CAVOK 06/M05 Q1001 R23/010060 NOSIG RMK QFE743
Conditions at: UUDL (YAROSLAV , RU) observed 1000 UTC 26 March 2019
Temperature: 6.0°C (43°F)
Dewpoint: -5.0°C (23°F) [RH = 45%]
Pressure (altimeter): 29.56 inches Hg (1001.0 mb)
Winds: from the SSW (200 degrees) at 7 MPH (6 knots; 3.1 m/s)
Visibility: 6 or more miles (10+ km)
Ceiling: ceiling and visibility are OK
Clouds: unknown
Weather: no significant weather observed at this time

METAR text: UUDL 260930Z 21002MPS CAVOK 06/M06 Q1001 R23/010060 NOSIG RMK QFE743
Conditions at: UUDL (YAROSLAV , RU) observed 0930 UTC 26 March 2019
Temperature: 6.0°C (43°F)
Dewpoint: -6.0°C (21°F) [RH = 42%]
Pressure (altimeter): 29.56 inches Hg (1001.0 mb)
Winds: from the SSW (210 degrees) at 5 MPH (4 knots; 2.1 m/s)
Visibility: 6 or more miles (10+ km)
Ceiling: ceiling and visibility are OK
Clouds: unknown
Weather: no significant weather observed at this time

METAR text: UUDL 260900Z 20002MPS CAVOK 06/M06 Q1002 R23/010060 NOSIG RMK QFE743
Conditions at: UUDL (YAROSLAV , RU) observed 0900 UTC 26 March 2019
Temperature: 6.0°C (43°F)
Dewpoint: -6.0°C (21°F) [RH = 42%]
Pressure (altimeter): 29.59 inches Hg (1002.0 mb)
Winds: from the SSW (200 degrees) at 5 MPH (4 knots; 2.1 m/s)
Visibility: 6 or more miles (10+ km)
Ceiling: ceiling and visibility are OK
Clouds: unknown
Weather: no significant weather observed at this time

METAR text: UUDL 260830Z 20003MPS 140V230 CAVOK 05/M06 Q1002 R23/010060 NOSIG RMK QFE743
Conditions at: UUDL (YAROSLAV , RU) observed 0830 UTC 26 March 2019
Temperature: 5.0°C (41°F)
Dewpoint: -6.0°C (21°F) [RH = 45%]
Pressure (altimeter): 29.59 inches Hg (1002.0 mb)
Winds: from the SSW (200 degrees) at 7 MPH (6 knots; 3.1 m/s)
Visibility: 6 or more miles (10+ km)
Ceiling: ceiling and visibility are OK
Clouds: unknown
Weather: no significant weather observed at this time

METAR text: UUDL 260800Z 19002MPS 160V260 CAVOK 04/M06 Q1002 R23/010060 NOSIG RMK QFE743
Conditions at: UUDL (YAROSLAV , RU) observed 0800 UTC 26 March 2019
Temperature: 4.0°C (39°F)
Dewpoint: -6.0°C (21°F) [RH = 48%]
Pressure (altimeter): 29.59 inches Hg (1002.0 mb)
Winds: from the S (190 degrees) at 5 MPH (4 knots; 2.1 m/s)
Visibility: 6 or more miles (10+ km)
Ceiling: ceiling and visibility are OK
Clouds: unknown
Weather: no significant weather observed at this time

METAR text: UUDL 260730Z 21003MPS 170V240 CAVOK 03/M06 Q1002 R23/010060 NOSIG RMK QFE743
Conditions at: UUDL (YAROSLAV , RU) observed 0730 UTC 26 March 2019
Temperature: 3.0°C (37°F)
Dewpoint: -6.0°C (21°F) [RH = 52%]
Pressure (altimeter): 29.59 inches Hg (1002.0 mb)
Winds: from the SSW (210 degrees) at 7 MPH (6 knots; 3.1 m/s)
Visibility: 6 or more miles (10+ km)
Ceiling: ceiling and visibility are OK
Clouds: unknown
Weather: no significant weather observed at this time

METAR text: UUDL 260700Z 17002MPS 140V240 CAVOK 03/M05 Q1002 R23/010060 NOSIG RMK QFE743
Conditions at: UUDL (YAROSLAV , RU) observed 0700 UTC 26 March 2019
Temperature: 3.0°C (37°F)
Dewpoint: -5.0°C (23°F) [RH = 56%]
Pressure (altimeter): 29.59 inches Hg (1002.0 mb)
Winds: from the S (170 degrees) at 5 MPH (4 knots; 2.1 m/s)
Visibility: 6 or more miles (10+ km)
Ceiling: ceiling and visibility are OK
Clouds: unknown
Weather: no significant weather observed at this time

METAR text: UUDL 260630Z 17002MPS CAVOK 02/M05 Q1002 R23/010060 NOSIG RMK QFE743
Conditions at: UUDL (YAROSLAV , RU) observed 0630 UTC 26 March 2019
Temperature: 2.0°C (36°F)
Dewpoint: -5.0°C (23°F) [RH = 60%]
Pressure (altimeter): 29.59 inches Hg (1002.0 mb)
Winds: from the S (170 degrees) at 5 MPH (4 knots; 2.1 m/s)
Visibility: 6 or more miles (10+ km)
Ceiling: ceiling and visibility are OK
Clouds: unknown
Weather: no significant weather observed at this time

METAR text: UUDL 260600Z 18002MPS 140V210 CAVOK 01/M05 Q1002 R23/010060 NOSIG RMK QFE743
Conditions at: UUDL (YAROSLAV , RU) observed 0600 UTC 26 March 2019
Temperature: 1.0°C (34°F)
Dewpoint: -5.0°C (23°F) [RH = 64%]
Pressure (altimeter): 29.59 inches Hg (1002.0 mb)
Winds: from the S (180 degrees) at 5 MPH (4 knots; 2.1 m/s)
Visibility: 6 or more miles (10+ km)
Ceiling: ceiling and visibility are OK
Clouds: unknown
Weather: no significant weather observed at this time

METAR text: UUDL 260530Z 18002MPS 150V220 CAVOK M00/M05 Q1002 R23/010060 NOSIG RMK QFE744
Conditions at: UUDL (YAROSLAV , RU) observed 0530 UTC 26 March 2019
Temperature: 0.0°C (32°F)
Dewpoint: -5.0°C (23°F) [RH = 69%]
Pressure (altimeter): 29.59 inches Hg (1002.0 mb)
Winds: from the S (180 degrees) at 5 MPH (4 knots; 2.1 m/s)
Visibility: 6 or more miles (10+ km)
Ceiling: ceiling and visibility are OK
Clouds: unknown
Weather: no significant weather observed at this time

METAR text: UUDL 260500Z 20001MPS CAVOK M01/M05 Q1002 R23/010060 NOSIG RMK QFE743
Conditions at: UUDL (YAROSLAV , RU) observed 0500 UTC 26 March 2019
Temperature: -1.0°C (30°F)
Dewpoint: -5.0°C (23°F) [RH = 74%]
Pressure (altimeter): 29.59 inches Hg (1002.0 mb)
Winds: from the SSW (200 degrees) at 2 MPH (2 knots; 1.0 m/s)
Visibility: 6 or more miles (10+ km)
Ceiling: ceiling and visibility are OK
Clouds: unknown
Weather: no significant weather observed at this time

METAR text: UUDL 260430Z 16002MPS CAVOK M02/M05 Q1002 R23/010060 NOSIG RMK QFE743
Conditions at: UUDL (YAROSLAV , RU) observed 0430 UTC 26 March 2019
Temperature: -2.0°C (28°F)
Dewpoint: -5.0°C (23°F) [RH = 80%]
Pressure (altimeter): 29.59 inches Hg (1002.0 mb)
Winds: from the SSE (160 degrees) at 5 MPH (4 knots; 2.1 m/s)
Visibility: 6 or more miles (10+ km)
Ceiling: ceiling and visibility are OK
Clouds: unknown
Weather: no significant weather observed at this time

METAR text: UUDL 260400Z 13001MPS CAVOK M02/M05 Q1002 R23/010050 NOSIG RMK QFE743
Conditions at: UUDL (YAROSLAV , RU) observed 0400 UTC 26 March 2019
Temperature: -2.0°C (28°F)
Dewpoint: -5.0°C (23°F) [RH = 80%]
Pressure (altimeter): 29.59 inches Hg (1002.0 mb)
Winds: from the SE (130 degrees) at 2 MPH (2 knots; 1.0 m/s)
Visibility: 6 or more miles (10+ km)
Ceiling: ceiling and visibility are OK
Clouds: unknown
Weather: no significant weather observed at this time

METAR text: UUDL 260330Z 17002MPS CAVOK M02/M05 Q1002 R23/010050 NOSIG RMK QFE743
Conditions at: UUDL (YAROSLAV , RU) observed 0330 UTC 26 March 2019
Temperature: -2.0°C (28°F)
Dewpoint: -5.0°C (23°F) [RH = 80%]
Pressure (altimeter): 29.59 inches Hg (1002.0 mb)
Winds: from the S (170 degrees) at 5 MPH (4 knots; 2.1 m/s)
Visibility: 6 or more miles (10+ km)
Ceiling: ceiling and visibility are OK
Clouds: unknown
Weather: no significant weather observed at this time

METAR text: UUDL 260300Z 14001MPS CAVOK M02/M05 Q1002 R23/010050 NOSIG RMK QFE743
Conditions at: UUDL (YAROSLAV , RU) observed 0300 UTC 26 March 2019
Temperature: -2.0°C (28°F)
Dewpoint: -5.0°C (23°F) [RH = 80%]
Pressure (altimeter): 29.59 inches Hg (1002.0 mb)
Winds: from the SE (140 degrees) at 2 MPH (2 knots; 1.0 m/s)
Visibility: 6 or more miles (10+ km)
Ceiling: ceiling and visibility are OK
Clouds: unknown
Weather: no significant weather observed at this time

METAR text: UUDL 260230Z 15002MPS CAVOK M02/M05 Q1002 R23/010050 NOSIG RMK QFE744
Conditions at: UUDL (YAROSLAV , RU) observed 0230 UTC 26 March 2019
Temperature: -2.0°C (28°F)
Dewpoint: -5.0°C (23°F) [RH = 80%]
Pressure (altimeter): 29.59 inches Hg (1002.0 mb)
Winds: from the SSE (150 degrees) at 5 MPH (4 knots; 2.1 m/s)
Visibility: 6 or more miles (10+ km)
Ceiling: ceiling and visibility are OK
Clouds: unknown
Weather: no significant weather observed at this time

METAR text: UUDL 260200Z 18002MPS CAVOK M02/M05 Q1003 R23/010050 NOSIG RMK QFE744
Conditions at: UUDL (YAROSLAV , RU) observed 0200 UTC 26 March 2019
Temperature: -2.0°C (28°F)
Dewpoint: -5.0°C (23°F) [RH = 80%]
Pressure (altimeter): 29.62 inches Hg (1003.0 mb)
Winds: from the S (180 degrees) at 5 MPH (4 knots; 2.1 m/s)
Visibility: 6 or more miles (10+ km)
Ceiling: ceiling and visibility are OK
Clouds: unknown
Weather: no significant weather observed at this time

METAR text: UUDL 260130Z 16002MPS CAVOK M03/M05 Q1003 R23/010050 NOSIG RMK QFE744
Conditions at: UUDL (YAROSLAV , RU) observed 0130 UTC 26 March 2019
Temperature: -3.0°C (27°F)
Dewpoint: -5.0°C (23°F) [RH = 86%]
Pressure (altimeter): 29.62 inches Hg (1003.0 mb)
Winds: from the SSE (160 degrees) at 5 MPH (4 knots; 2.1 m/s)
Visibility: 6 or more miles (10+ km)
Ceiling: ceiling and visibility are OK
Clouds: unknown
Weather: no significant weather observed at this time

METAR text: UUDL 260100Z 14001MPS CAVOK M02/M05 Q1003 R23/010050 NOSIG RMK QFE744
Conditions at: UUDL (YAROSLAV , RU) observed 0100 UTC 26 March 2019
Temperature: -2.0°C (28°F)
Dewpoint: -5.0°C (23°F) [RH = 80%]
Pressure (altimeter): 29.62 inches Hg (1003.0 mb)
Winds: from the SE (140 degrees) at 2 MPH (2 knots; 1.0 m/s)
Visibility: 6 or more miles (10+ km)
Ceiling: ceiling and visibility are OK
Clouds: unknown
Weather: no significant weather observed at this time

METAR text: UUDL 260030Z 20002MPS CAVOK M01/M05 Q1003 R23/010050 NOSIG RMK QFE744
Conditions at: UUDL (YAROSLAV , RU) observed 0030 UTC 26 March 2019
Temperature: -1.0°C (30°F)
Dewpoint: -5.0°C (23°F) [RH = 74%]
Pressure (altimeter): 29.62 inches Hg (1003.0 mb)
Winds: from the SSW (200 degrees) at 5 MPH (4 knots; 2.1 m/s)
Visibility: 6 or more miles (10+ km)
Ceiling: ceiling and visibility are OK
Clouds: unknown
Weather: no significant weather observed at this time

METAR text: UUDL 260000Z 19002MPS CAVOK M01/M04 Q1003 R23/010050 NOSIG RMK QFE744
Conditions at: UUDL (YAROSLAV , RU) observed 0000 UTC 26 March 2019
Temperature: -1.0°C (30°F)
Dewpoint: -4.0°C (25°F) [RH = 80%]
Pressure (altimeter): 29.62 inches Hg (1003.0 mb)
Winds: from the S (190 degrees) at 5 MPH (4 knots; 2.1 m/s)
Visibility: 6 or more miles (10+ km)
Ceiling: ceiling and visibility are OK
Clouds: unknown
Weather: no significant weather observed at this time

METAR text: UUDL 252330Z 20002MPS CAVOK M01/M05 Q1003 R23/010050 NOSIG RMK QFE744
Conditions at: UUDL (YAROSLAV , RU) observed 2330 UTC 25 March 2019
Temperature: -1.0°C (30°F)
Dewpoint: -5.0°C (23°F) [RH = 74%]
Pressure (altimeter): 29.62 inches Hg (1003.0 mb)
Winds: from the SSW (200 degrees) at 5 MPH (4 knots; 2.1 m/s)
Visibility: 6 or more miles (10+ km)
Ceiling: ceiling and visibility are OK
Clouds: unknown
Weather: no significant weather observed at this time

METAR text: UUDL 252300Z 19002MPS CAVOK M00/M04 Q1003 R23/010050 NOSIG RMK QFE744
Conditions at: UUDL (YAROSLAV , RU) observed 2300 UTC 25 March 2019
Temperature: 0.0°C (32°F)
Dewpoint: -4.0°C (25°F) [RH = 74%]
Pressure (altimeter): 29.62 inches Hg (1003.0 mb)
Winds: from the S (190 degrees) at 5 MPH (4 knots; 2.1 m/s)
Visibility: 6 or more miles (10+ km)
Ceiling: ceiling and visibility are OK
Clouds: unknown
Weather: no significant weather observed at this time

METAR text: UUDL 252230Z 21002MPS CAVOK M02/M05 Q1003 R23/010050 NOSIG RMK QFE744
Conditions at: UUDL (YAROSLAV , RU) observed 2230 UTC 25 March 2019
Temperature: -2.0°C (28°F)
Dewpoint: -5.0°C (23°F) [RH = 80%]
Pressure (altimeter): 29.62 inches Hg (1003.0 mb)
Winds: from the SSW (210 degrees) at 5 MPH (4 knots; 2.1 m/s)
Visibility: 6 or more miles (10+ km)
Ceiling: ceiling and visibility are OK
Clouds: unknown
Weather: no significant weather observed at this time

METAR text: UUDL 252200Z 23003MPS CAVOK M02/M05 Q1002 R23/010050 NOSIG RMK QFE744
Conditions at: UUDL (YAROSLAV , RU) observed 2200 UTC 25 March 2019
Temperature: -2.0°C (28°F)
Dewpoint: -5.0°C (23°F) [RH = 80%]
Pressure (altimeter): 29.59 inches Hg (1002.0 mb)
Winds: from the SW (230 degrees) at 7 MPH (6 knots; 3.1 m/s)
Visibility: 6 or more miles (10+ km)
Ceiling: ceiling and visibility are OK
Clouds: unknown
Weather: no significant weather observed at this time

METAR text: UUDL 252130Z 22003MPS CAVOK M00/M05 Q1003 R23/010050 NOSIG RMK QFE744
Conditions at: UUDL (YAROSLAV , RU) observed 2130 UTC 25 March 2019
Temperature: 0.0°C (32°F)
Dewpoint: -5.0°C (23°F) [RH = 69%]
Pressure (altimeter): 29.62 inches Hg (1003.0 mb)
Winds: from the SW (220 degrees) at 7 MPH (6 knots; 3.1 m/s)
Visibility: 6 or more miles (10+ km)
Ceiling: ceiling and visibility are OK
Clouds: unknown
Weather: no significant weather observed at this time

METAR text: UUDL 252100Z 20002MPS CAVOK M01/M05 Q1003 R23/010050 NOSIG RMK QFE744
Conditions at: UUDL (YAROSLAV , RU) observed 2100 UTC 25 March 2019
Temperature: -1.0°C (30°F)
Dewpoint: -5.0°C (23°F) [RH = 74%]
Pressure (altimeter): 29.62 inches Hg (1003.0 mb)
Winds: from the SSW (200 degrees) at 5 MPH (4 knots; 2.1 m/s)
Visibility: 6 or more miles (10+ km)
Ceiling: ceiling and visibility are OK
Clouds: unknown
Weather: no significant weather observed at this time

METAR text: UUDL 252030Z 21002MPS CAVOK 00/M05 Q1003 R23/010050 NOSIG RMK QFE744
Conditions at: UUDL (YAROSLAV , RU) observed 2030 UTC 25 March 2019
Temperature: 0.0°C (32°F)
Dewpoint: -5.0°C (23°F) [RH = 69%]
Pressure (altimeter): 29.62 inches Hg (1003.0 mb)
Winds: from the SSW (210 degrees) at 5 MPH (4 knots; 2.1 m/s)
Visibility: 6 or more miles (10+ km)
Ceiling: ceiling and visibility are OK
Clouds: unknown
Weather: no significant weather observed at this time

METAR text: UUDL 252000Z 20002MPS CAVOK 00/M05 Q1002 R23/010050 NOSIG RMK QFE744
Conditions at: UUDL (YAROSLAV , RU) observed 2000 UTC 25 March 2019
Temperature: 0.0°C (32°F)
Dewpoint: -5.0°C (23°F) [RH = 69%]
Pressure (altimeter): 29.59 inches Hg (1002.0 mb)
Winds: from the SSW (200 degrees) at 5 MPH (4 knots; 2.1 m/s)
Visibility: 6 or more miles (10+ km)
Ceiling: ceiling and visibility are OK
Clouds: unknown
Weather: no significant weather observed at this time

METAR text: UUDL 251930Z 22002MPS 9999 OVC040 01/M05 Q1002 R23/010050 NOSIG RMK QFE743
Conditions at: UUDL (YAROSLAV , RU) observed 1930 UTC 25 March 2019
Temperature: 1.0°C (34°F)
Dewpoint: -5.0°C (23°F) [RH = 64%]
Pressure (altimeter): 29.59 inches Hg (1002.0 mb)
Winds: from the SW (220 degrees) at 5 MPH (4 knots; 2.1 m/s)
Visibility: 6 or more miles (10+ km)
Ceiling: 4000 feet AGL
Clouds: overcast cloud deck at 4000 feet AGL
Weather: no significant weather observed at this time

METAR text: UUDL 251900Z 24002MPS 9999 OVC040 M00/M05 Q1002 R23/010050 NOSIG RMK QFE743
Conditions at: UUDL (YAROSLAV , RU) observed 1900 UTC 25 March 2019
Temperature: 0.0°C (32°F)
Dewpoint: -5.0°C (23°F) [RH = 69%]
Pressure (altimeter): 29.59 inches Hg (1002.0 mb)
Winds: from the WSW (240 degrees) at 5 MPH (4 knots; 2.1 m/s)
Visibility: 6 or more miles (10+ km)
Ceiling: 4000 feet AGL
Clouds: overcast cloud deck at 4000 feet AGL
Weather: no significant weather observed at this time

METAR text: UUDL 251830Z 22002MPS 9999 BKN040 M02/M06 Q1002 R23/010050 NOSIG RMK QFE743
Conditions at: UUDL (YAROSLAV , RU) observed 1830 UTC 25 March 2019
Temperature: -2.0°C (28°F)
Dewpoint: -6.0°C (21°F) [RH = 74%]
Pressure (altimeter): 29.59 inches Hg (1002.0 mb)
Winds: from the SW (220 degrees) at 5 MPH (4 knots; 2.1 m/s)
Visibility: 6 or more miles (10+ km)
Ceiling: 4000 feet AGL
Clouds: broken clouds at 4000 feet AGL
Weather: no significant weather observed at this time

METAR text: UUDL 251800Z 21002MPS 9999 OVC040 00/M06 Q1002 R23/010050 NOSIG RMK QFE743
Conditions at: UUDL (YAROSLAV , RU) observed 1800 UTC 25 March 2019
Temperature: 0.0°C (32°F)
Dewpoint: -6.0°C (21°F) [RH = 64%]
Pressure (altimeter): 29.59 inches Hg (1002.0 mb)
Winds: from the SSW (210 degrees) at 5 MPH (4 knots; 2.1 m/s)
Visibility: 6 or more miles (10+ km)
Ceiling: 4000 feet AGL
Clouds: overcast cloud deck at 4000 feet AGL
Weather: no significant weather observed at this time

METAR text: UUDL 251730Z 21002MPS 9999 OVC040 M00/M05 Q1002 R23/010050 NOSIG RMK QFE743
Conditions at: UUDL (YAROSLAV , RU) observed 1730 UTC 25 March 2019
Temperature: 0.0°C (32°F)
Dewpoint: -5.0°C (23°F) [RH = 69%]
Pressure (altimeter): 29.59 inches Hg (1002.0 mb)
Winds: from the SSW (210 degrees) at 5 MPH (4 knots; 2.1 m/s)
Visibility: 6 or more miles (10+ km)
Ceiling: 4000 feet AGL
Clouds: overcast cloud deck at 4000 feet AGL
Weather: no significant weather observed at this time

METAR text: UUDL 251700Z 21002MPS 9999 BKN040 00/M05 Q1002 R23/010050 NOSIG RMK QFE743
Conditions at: UUDL (YAROSLAV , RU) observed 1700 UTC 25 March 2019
Temperature: 0.0°C (32°F)
Dewpoint: -5.0°C (23°F) [RH = 69%]
Pressure (altimeter): 29.59 inches Hg (1002.0 mb)
Winds: from the SSW (210 degrees) at 5 MPH (4 knots; 2.1 m/s)
Visibility: 6 or more miles (10+ km)
Ceiling: 4000 feet AGL
Clouds: broken clouds at 4000 feet AGL
Weather: no significant weather observed at this time

METAR text: UUDL 251630Z 23002MPS 9999 BKN040 02/M05 Q1002 R23/010050 NOSIG RMK QFE743
Conditions at: UUDL (YAROSLAV , RU) observed 1630 UTC 25 March 2019
Temperature: 2.0°C (36°F)
Dewpoint: -5.0°C (23°F) [RH = 60%]
Pressure (altimeter): 29.59 inches Hg (1002.0 mb)
Winds: from the SW (230 degrees) at 5 MPH (4 knots; 2.1 m/s)
Visibility: 6 or more miles (10+ km)
Ceiling: 4000 feet AGL
Clouds: broken clouds at 4000 feet AGL
Weather: no significant weather observed at this time

METAR text: UUDL 251600Z 26002MPS 9999 BKN040 02/M05 Q1002 R23/010050 NOSIG RMK QFE743
Conditions at: UUDL (YAROSLAV , RU) observed 1600 UTC 25 March 2019
Temperature: 2.0°C (36°F)
Dewpoint: -5.0°C (23°F) [RH = 60%]
Pressure (altimeter): 29.59 inches Hg (1002.0 mb)
Winds: from the W (260 degrees) at 5 MPH (4 knots; 2.1 m/s)
Visibility: 6 or more miles (10+ km)
Ceiling: 4000 feet AGL
Clouds: broken clouds at 4000 feet AGL
Weather: no significant weather observed at this time

METAR text: UUDL 251530Z 29002MPS 9999 BKN040 03/M06 Q1002 R23/010050 NOSIG RMK QFE743
Conditions at: UUDL (YAROSLAV , RU) observed 1530 UTC 25 March 2019
Temperature: 3.0°C (37°F)
Dewpoint: -6.0°C (21°F) [RH = 52%]
Pressure (altimeter): 29.59 inches Hg (1002.0 mb)
Winds: from the WNW (290 degrees) at 5 MPH (4 knots; 2.1 m/s)
Visibility: 6 or more miles (10+ km)
Ceiling: 4000 feet AGL
Clouds: broken clouds at 4000 feet AGL
Weather: no significant weather observed at this time

METAR text: UUDL 251500Z 28003MPS 9999 BKN040 03/M05 Q1002 R23/010050 NOSIG RMK QFE743
Conditions at: UUDL (YAROSLAV , RU) observed 1500 UTC 25 March 2019
Temperature: 3.0°C (37°F)
Dewpoint: -5.0°C (23°F) [RH = 56%]
Pressure (altimeter): 29.59 inches Hg (1002.0 mb)
Winds: from the W (280 degrees) at 7 MPH (6 knots; 3.1 m/s)
Visibility: 6 or more miles (10+ km)
Ceiling: 4000 feet AGL
Clouds: broken clouds at 4000 feet AGL
Weather: no significant weather observed at this time

METAR text: UUDL 251430Z 29004MPS 9999 BKN040 03/M06 Q1001 R23/010050 NOSIG RMK QFE743
Conditions at: UUDL (YAROSLAV , RU) observed 1430 UTC 25 March 2019
Temperature: 3.0°C (37°F)
Dewpoint: -6.0°C (21°F) [RH = 52%]
Pressure (altimeter): 29.56 inches Hg (1001.0 mb)
Winds: from the WNW (290 degrees) at 9 MPH (8 knots; 4.1 m/s)
Visibility: 6 or more miles (10+ km)
Ceiling: 4000 feet AGL
Clouds: broken clouds at 4000 feet AGL
Weather: no significant weather observed at this time

METAR text: UUDL 251400Z 28005MPS 9999 BKN040 03/M06 Q1001 R23/010050 NOSIG RMK QFE743
Conditions at: UUDL (YAROSLAV , RU) observed 1400 UTC 25 March 2019
Temperature: 3.0°C (37°F)
Dewpoint: -6.0°C (21°F) [RH = 52%]
Pressure (altimeter): 29.56 inches Hg (1001.0 mb)
Winds: from the W (280 degrees) at 12 MPH (10 knots; 5.1 m/s)
Visibility: 6 or more miles (10+ km)
Ceiling: 4000 feet AGL
Clouds: broken clouds at 4000 feet AGL
Weather: no significant weather observed at this time

METAR text: UUDL 251330Z 28006MPS 9999 BKN040 03/M06 Q1001 R23/010050 NOSIG RMK QFE743
Conditions at: UUDL (YAROSLAV , RU) observed 1330 UTC 25 March 2019
Temperature: 3.0°C (37°F)
Dewpoint: -6.0°C (21°F) [RH = 52%]
Pressure (altimeter): 29.56 inches Hg (1001.0 mb)
Winds: from the W (280 degrees) at 14 MPH (12 knots; 6.2 m/s)
Visibility: 6 or more miles (10+ km)
Ceiling: 4000 feet AGL
Clouds: broken clouds at 4000 feet AGL
Weather: no significant weather observed at this time

METAR text: UUDL 251300Z 28006MPS 9999 BKN040 03/M06 Q1001 R23/010050 NOSIG RMK QFE743
Conditions at: UUDL (YAROSLAV , RU) observed 1300 UTC 25 March 2019
Temperature: 3.0°C (37°F)
Dewpoint: -6.0°C (21°F) [RH = 52%]
Pressure (altimeter): 29.56 inches Hg (1001.0 mb)
Winds: from the W (280 degrees) at 14 MPH (12 knots; 6.2 m/s)
Visibility: 6 or more miles (10+ km)
Ceiling: 4000 feet AGL
Clouds: broken clouds at 4000 feet AGL
Weather: no significant weather observed at this time

METAR text: UUDL 251230Z 29005MPS 9999 BKN040 03/M05 Q1001 R23/010050 NOSIG RMK QFE743
Conditions at: UUDL (YAROSLAV , RU) observed 1230 UTC 25 March 2019
Temperature: 3.0°C (37°F)
Dewpoint: -5.0°C (23°F) [RH = 56%]
Pressure (altimeter): 29.56 inches Hg (1001.0 mb)
Winds: from the WNW (290 degrees) at 12 MPH (10 knots; 5.1 m/s)
Visibility: 6 or more miles (10+ km)
Ceiling: 4000 feet AGL
Clouds: broken clouds at 4000 feet AGL
Weather: no significant weather observed at this time

METAR text: UUDL 251200Z 28006MPS 9999 BKN032 03/M04 Q1001 R05/010050 NOSIG RMK QFE743
Conditions at: UUDL (YAROSLAV , RU) observed 1200 UTC 25 March 2019
Temperature: 3.0°C (37°F)
Dewpoint: -4.0°C (25°F) [RH = 60%]
Pressure (altimeter): 29.56 inches Hg (1001.0 mb)
Winds: from the W (280 degrees) at 14 MPH (12 knots; 6.2 m/s)
Visibility: 6 or more miles (10+ km)
Ceiling: 3200 feet AGL
Clouds: broken clouds at 3200 feet AGL
Weather: no significant weather observed at this time

METAR text: UUDL 251130Z 28005MPS 9999 BKN030 03/M04 Q1001 R05/190050 NOSIG RMK QFE743
Conditions at: UUDL (YAROSLAV , RU) observed 1130 UTC 25 March 2019
Temperature: 3.0°C (37°F)
Dewpoint: -4.0°C (25°F) [RH = 60%]
Pressure (altimeter): 29.56 inches Hg (1001.0 mb)
Winds: from the W (280 degrees) at 12 MPH (10 knots; 5.1 m/s)
Visibility: 6 or more miles (10+ km)
Ceiling: 3000 feet AGL
Clouds: broken clouds at 3000 feet AGL
Weather: no significant weather observed at this time

METAR text: UUDL 251100Z 27004MPS 9999 BKN030 03/M03 Q1001 R05/190050 NOSIG RMK QFE743
Conditions at: UUDL (YAROSLAV , RU) observed 1100 UTC 25 March 2019
Temperature: 3.0°C (37°F)
Dewpoint: -3.0°C (27°F) [RH = 65%]
Pressure (altimeter): 29.56 inches Hg (1001.0 mb)
Winds: from the W (270 degrees) at 9 MPH (8 knots; 4.1 m/s)
Visibility: 6 or more miles (10+ km)
Ceiling: 3000 feet AGL
Clouds: broken clouds at 3000 feet AGL
Weather: no significant weather observed at this time

METAR text: UUDL 251030Z 28004MPS 9999 -SHSNRA BKN028CB 03/M03 Q1001 R05/190050 NOSIG RMK QFE743
Conditions at: UUDL (YAROSLAV , RU) observed 1030 UTC 25 March 2019
Temperature: 3.0°C (37°F)
Dewpoint: -3.0°C (27°F) [RH = 65%]
Pressure (altimeter): 29.56 inches Hg (1001.0 mb)
Winds: from the W (280 degrees) at 9 MPH (8 knots; 4.1 m/s)
Visibility: 6 or more miles (10+ km)
Ceiling: 2800 feet AGL
Clouds: broken clouds at 2800 feet AGL
Weather: -SHSN -SHRA  (light snow showers, light rain showers)

METAR text: UUDL 251000Z 33003MPS 270V360 9999 BKN028 03/M03 Q1001 R23/190050 NOSIG RMK QFE743
Conditions at: UUDL (YAROSLAV , RU) observed 1000 UTC 25 March 2019
Temperature: 3.0°C (37°F)
Dewpoint: -3.0°C (27°F) [RH = 65%]
Pressure (altimeter): 29.56 inches Hg (1001.0 mb)
Winds: from the NNW (330 degrees) at 7 MPH (6 knots; 3.1 m/s)
Visibility: 6 or more miles (10+ km)
Ceiling: 2800 feet AGL
Clouds: broken clouds at 2800 feet AGL
Weather: no significant weather observed at this time

METAR text: UUDL 250930Z 28004MPS 250V320 9999 BKN032 03/M04 Q1001 R23/190050 NOSIG RMK QFE743
Conditions at: UUDL (YAROSLAV , RU) observed 0930 UTC 25 March 2019
Temperature: 3.0°C (37°F)
Dewpoint: -4.0°C (25°F) [RH = 60%]
Pressure (altimeter): 29.56 inches Hg (1001.0 mb)
Winds: from the W (280 degrees) at 9 MPH (8 knots; 4.1 m/s)
Visibility: 6 or more miles (10+ km)
Ceiling: 3200 feet AGL
Clouds: broken clouds at 3200 feet AGL
Weather: no significant weather observed at this time

METAR text: UUDL 250900Z 25005MPS 9999 SCT026 03/M03 Q1001 R23/620347 NOSIG RMK QFE743
Conditions at: UUDL (YAROSLAV , RU) observed 0900 UTC 25 March 2019
Temperature: 3.0°C (37°F)
Dewpoint: -3.0°C (27°F) [RH = 65%]
Pressure (altimeter): 29.56 inches Hg (1001.0 mb)
Winds: from the WSW (250 degrees) at 12 MPH (10 knots; 5.1 m/s)
Visibility: 6 or more miles (10+ km)
Ceiling: at least 12,000 feet AGL
Clouds: scattered clouds at 2600 feet AGL
Weather: no significant weather observed at this time

METAR text: UUDL 250830Z 27004MPS 9999 SCT026 03/M03 Q1002 R23/620347 NOSIG RMK QFE743
Conditions at: UUDL (YAROSLAV , RU) observed 0830 UTC 25 March 2019
Temperature: 3.0°C (37°F)
Dewpoint: -3.0°C (27°F) [RH = 65%]
Pressure (altimeter): 29.59 inches Hg (1002.0 mb)
Winds: from the W (270 degrees) at 9 MPH (8 knots; 4.1 m/s)
Visibility: 6 or more miles (10+ km)
Ceiling: at least 12,000 feet AGL
Clouds: scattered clouds at 2600 feet AGL
Weather: no significant weather observed at this time

METAR text: UUDL 250800Z 26004MPS 9999 SCT026 02/M02 Q1002 R23/620347 NOSIG RMK QFE743
Conditions at: UUDL (YAROSLAV , RU) observed 0800 UTC 25 March 2019
Temperature: 2.0°C (36°F)
Dewpoint: -2.0°C (28°F) [RH = 75%]
Pressure (altimeter): 29.59 inches Hg (1002.0 mb)
Winds: from the W (260 degrees) at 9 MPH (8 knots; 4.1 m/s)
Visibility: 6 or more miles (10+ km)
Ceiling: at least 12,000 feet AGL
Clouds: scattered clouds at 2600 feet AGL
Weather: no significant weather observed at this time

METAR text: UUDL 250730Z 24004MPS 9999 SCT030 01/M02 Q1002 R23/620347 NOSIG RMK QFE743
Conditions at: UUDL (YAROSLAV , RU) observed 0730 UTC 25 March 2019
Temperature: 1.0°C (34°F)
Dewpoint: -2.0°C (28°F) [RH = 80%]
Pressure (altimeter): 29.59 inches Hg (1002.0 mb)
Winds: from the WSW (240 degrees) at 9 MPH (8 knots; 4.1 m/s)
Visibility: 6 or more miles (10+ km)
Ceiling: at least 12,000 feet AGL
Clouds: scattered clouds at 3000 feet AGL
Weather: no significant weather observed at this time

METAR text: UUDL 250700Z 23003MPS 9999 SCT030 01/M02 Q1002 R23/620347 NOSIG RMK QFE743
Conditions at: UUDL (YAROSLAV , RU) observed 0700 UTC 25 March 2019
Temperature: 1.0°C (34°F)
Dewpoint: -2.0°C (28°F) [RH = 80%]
Pressure (altimeter): 29.59 inches Hg (1002.0 mb)
Winds: from the SW (230 degrees) at 7 MPH (6 knots; 3.1 m/s)
Visibility: 6 or more miles (10+ km)
Ceiling: at least 12,000 feet AGL
Clouds: scattered clouds at 3000 feet AGL
Weather: no significant weather observed at this time

METAR text: UUDL 250630Z 24002MPS 9999 BKN027 01/M02 Q1002 R23/620347 NOSIG RMK QFE743
Conditions at: UUDL (YAROSLAV , RU) observed 0630 UTC 25 March 2019
Temperature: 1.0°C (34°F)
Dewpoint: -2.0°C (28°F) [RH = 80%]
Pressure (altimeter): 29.59 inches Hg (1002.0 mb)
Winds: from the WSW (240 degrees) at 5 MPH (4 knots; 2.1 m/s)
Visibility: 6 or more miles (10+ km)
Ceiling: 2700 feet AGL
Clouds: broken clouds at 2700 feet AGL
Weather: no significant weather observed at this time

METAR text: UUDL 250600Z 28001MPS 9999 BKN031 00/M02 Q1002 R23/620347 NOSIG RMK QFE743
Conditions at: UUDL (YAROSLAV , RU) observed 0600 UTC 25 March 2019
Temperature: 0.0°C (32°F)
Dewpoint: -2.0°C (28°F) [RH = 86%]
Pressure (altimeter): 29.59 inches Hg (1002.0 mb)
Winds: from the W (280 degrees) at 2 MPH (2 knots; 1.0 m/s)
Visibility: 6 or more miles (10+ km)
Ceiling: 3100 feet AGL
Clouds: broken clouds at 3100 feet AGL
Weather: no significant weather observed at this time

METAR text: UUDL 250530Z 28002MPS 9999 -SHSNRA SCT007 OVC024CB 00/M01 Q1002 R23/620347 NOSIG RMK QFE743
Conditions at: UUDL (YAROSLAV , RU) observed 0530 UTC 25 March 2019
Temperature: 0.0°C (32°F)
Dewpoint: -1.0°C (30°F) [RH = 93%]
Pressure (altimeter): 29.59 inches Hg (1002.0 mb)
Winds: from the W (280 degrees) at 5 MPH (4 knots; 2.1 m/s)
Visibility: 6 or more miles (10+ km)
Ceiling: 2400 feet AGL
Clouds: scattered clouds at 700 feet AGL
overcast cloud deck at 2400 feet AGL
Weather: -SHSN -SHRA  (light snow showers, light rain showers)

METAR text: UUDL 250500Z 26003MPS 9999 -SN SCT008 OVC024 00/M01 Q1002 R23/620347 NOSIG RMK QFE743
Conditions at: UUDL (YAROSLAV , RU) observed 0500 UTC 25 March 2019
Temperature: 0.0°C (32°F)
Dewpoint: -1.0°C (30°F) [RH = 93%]
Pressure (altimeter): 29.59 inches Hg (1002.0 mb)
Winds: from the W (260 degrees) at 7 MPH (6 knots; 3.1 m/s)
Visibility: 6 or more miles (10+ km)
Ceiling: 2400 feet AGL
Clouds: scattered clouds at 800 feet AGL
overcast cloud deck at 2400 feet AGL
Weather: -SN  (light snow)

METAR text: UUDL 250430Z 27003MPS 9999 OVC008 00/M01 Q1002 R23/620347 NOSIG RMK QFE743
Conditions at: UUDL (YAROSLAV , RU) observed 0430 UTC 25 March 2019
Temperature: 0.0°C (32°F)
Dewpoint: -1.0°C (30°F) [RH = 93%]
Pressure (altimeter): 29.59 inches Hg (1002.0 mb)
Winds: from the W (270 degrees) at 7 MPH (6 knots; 3.1 m/s)
Visibility: 6 or more miles (10+ km)
Ceiling: 800 feet AGL
Clouds: overcast cloud deck at 800 feet AGL
Weather: no significant weather observed at this time

METAR text: UUDL 250400Z 27002MPS 9999 OVC007 00/M01 Q1002 R23/620347 NOSIG RMK QFE743
Conditions at: UUDL (YAROSLAV , RU) observed 0400 UTC 25 March 2019
Temperature: 0.0°C (32°F)
Dewpoint: -1.0°C (30°F) [RH = 93%]
Pressure (altimeter): 29.59 inches Hg (1002.0 mb)
Winds: from the W (270 degrees) at 5 MPH (4 knots; 2.1 m/s)
Visibility: 6 or more miles (10+ km)
Ceiling: 700 feet AGL
Clouds: overcast cloud deck at 700 feet AGL
Weather: no significant weather observed at this time

METAR text: UUDL 250330Z 28004MPS 9999 OVC005 00/M01 Q1002 R23/620347 NOSIG RMK QBB150 QFE743
Conditions at: UUDL (YAROSLAV , RU) observed 0330 UTC 25 March 2019
Temperature: 0.0°C (32°F)
Dewpoint: -1.0°C (30°F) [RH = 93%]
Pressure (altimeter): 29.59 inches Hg (1002.0 mb)
Winds: from the W (280 degrees) at 9 MPH (8 knots; 4.1 m/s)
Visibility: 6 or more miles (10+ km)
Ceiling: 500 feet AGL
Clouds: overcast cloud deck at 500 feet AGL
Weather: no significant weather observed at this time

METAR text: UUDL 250300Z 26004MPS 9999 OVC005 00/M01 Q1002 R23/620347 NOSIG RMK QBB150 QFE743
Conditions at: UUDL (YAROSLAV , RU) observed 0300 UTC 25 March 2019
Temperature: 0.0°C (32°F)
Dewpoint: -1.0°C (30°F) [RH = 93%]
Pressure (altimeter): 29.59 inches Hg (1002.0 mb)
Winds: from the W (260 degrees) at 9 MPH (8 knots; 4.1 m/s)
Visibility: 6 or more miles (10+ km)
Ceiling: 500 feet AGL
Clouds: overcast cloud deck at 500 feet AGL
Weather: no significant weather observed at this time

METAR text: UUDL 250230Z 23001MPS 9999 OVC006 00/M00 Q1002 R23/620347 NOSIG RMK QFE743
Conditions at: UUDL (YAROSLAV , RU) observed 0230 UTC 25 March 2019
Temperature: 0.0°C (32°F)
Dewpoint: 0.0°C (32°F) [RH = 100%]
Pressure (altimeter): 29.59 inches Hg (1002.0 mb)
Winds: from the SW (230 degrees) at 2 MPH (2 knots; 1.0 m/s)
Visibility: 6 or more miles (10+ km)
Ceiling: 600 feet AGL
Clouds: overcast cloud deck at 600 feet AGL
Weather: no significant weather observed at this time

METAR text: UUDL 250200Z 26003MPS 9999 OVC006 00/M00 Q1002 R23/620347 NOSIG RMK QFE743
Conditions at: UUDL (YAROSLAV , RU) observed 0200 UTC 25 March 2019
Temperature: 0.0°C (32°F)
Dewpoint: 0.0°C (32°F) [RH = 100%]
Pressure (altimeter): 29.59 inches Hg (1002.0 mb)
Winds: from the W (260 degrees) at 7 MPH (6 knots; 3.1 m/s)
Visibility: 6 or more miles (10+ km)
Ceiling: 600 feet AGL
Clouds: overcast cloud deck at 600 feet AGL
Weather: no significant weather observed at this time

METAR text: UUDL 250130Z 26003MPS 9999 OVC006 00/M00 Q1002 R23/620347 NOSIG RMK QFE743
Conditions at: UUDL (YAROSLAV , RU) observed 0130 UTC 25 March 2019
Temperature: 0.0°C (32°F)
Dewpoint: 0.0°C (32°F) [RH = 100%]
Pressure (altimeter): 29.59 inches Hg (1002.0 mb)
Winds: from the W (260 degrees) at 7 MPH (6 knots; 3.1 m/s)
Visibility: 6 or more miles (10+ km)
Ceiling: 600 feet AGL
Clouds: overcast cloud deck at 600 feet AGL
Weather: no significant weather observed at this time

METAR text: UUDL 250100Z 27003MPS 9999 OVC006 00/M00 Q1002 R23/620347 NOSIG RMK QFE743
Conditions at: UUDL (YAROSLAV , RU) observed 0100 UTC 25 March 2019
Temperature: 0.0°C (32°F)
Dewpoint: 0.0°C (32°F) [RH = 100%]
Pressure (altimeter): 29.59 inches Hg (1002.0 mb)
Winds: from the W (270 degrees) at 7 MPH (6 knots; 3.1 m/s)
Visibility: 6 or more miles (10+ km)
Ceiling: 600 feet AGL
Clouds: overcast cloud deck at 600 feet AGL
Weather: no significant weather observed at this time

Forecast for: UUDL (YAROSLAV , RU)
Text: TAF UUDL 261100Z 2612/2712 18003MPS 8000 BKN040
Forecast period: 1200 to 2000 UTC 26 March 2019
Forecast type: FROM: standard forecast or significant change
Winds: from the S (180 degrees) at 7 MPH (6 knots; 3.1 m/s)
Visibility: 5 miles (8 km)
Ceiling: 4000 feet AGL
Clouds: broken clouds at 4000 feet AGL
Weather: no significant weather forecast for this period
Text: TEMPO 2612/2620 3100 -SHSNRA BKN016CB BKN040
Forecast period: 1200 to 2000 UTC 26 March 2019
Forecast type: TEMPORARY: The following changes expected for less than half the time period
Visibility: 1.93 miles (3.11 km)
Ceiling: 1600 feet AGL
Clouds: broken clouds at 1600 feet AGL
broken clouds at 4000 feet AGL
Weather: -SHSN -SHRA  (light snow showers, light rain showers)
Text: FM262000 25003MPS 6000 -SN OVC011
Forecast period: 2000 UTC 26 March 2019 to 1200 UTC 27 March 2019
Forecast type: FROM: standard forecast or significant change
Winds: from the WSW (250 degrees) at 7 MPH (6 knots; 3.1 m/s)
Visibility: 4 miles (6 km)
Ceiling: 1100 feet AGL
Clouds: overcast cloud deck at 1100 feet AGL
Weather: -SN  (light snow)
Text: TEMPO 2620/2712 3100 -SNRA
Forecast period: 2000 UTC 26 March 2019 to 1200 UTC 27 March 2019
Forecast type: TEMPORARY: The following changes expected for less than half the time period
Visibility: 1.93 miles (3.11 km)
Ceiling: unknown
Clouds: missing
Weather: -SN -RA  (light snow, light rain)